Airfield :
LOGIN :

Register | Disclaimer

   EN    FR    IT 

 










Legend :    VFR   Marginal VFR   IFR   Intensive IFR   Very Intensive IFR
Visi :
Ceiling :
>= 8 km
>= 3000ft
5 to 8 km
1000 to 3000 ft
1500m to 5 km
500 to 1000 ft
800 to 1500m
200 to 500 ft
< 800m
< 200 ft
Symbols :   Thunderstorms  Fog  Heavy snow  Heavy precipitations  Wind > 20 kt
SIGMETs :     Misc.  Thunderstorms  Icing  Turbulence  Mountain Waves  Volcanic Ashes






- Airport Elevation : 52 ft
- IATA code : RNN


EKRN - Bornholm Ronne

CURRENT METAR :
  • 282150Z AUTO 26009KT 9999 OVC160/// 13/12 Q1016

EXPIRED METARs :
  • 282120Z AUTO 27009KT 9999 BKN150/// 13/12 Q1016
  • 282050Z AUTO 26007KT 9999 BKN130/// 13/12 Q1016
  • 282020Z AUTO 27006KT 9999 BKN077/// BKN140/// 13/12 Q1016
  • 281950Z AUTO 25003KT 9999 BKN061/// BKN120/// 14/12 Q1016
  • 281920Z AUTO 17002KT 9999 FEW045/// SCT057/// BKN120/// 14/12 Q1016
  • 281850Z AUTO 20003KT 9999 BKN040/// 14/12 Q1016
  • 281820Z AUTO 25006KT 9999 FEW060/// SCT079/// OVC100/// 14/12 Q1016
  • 281750Z AUTO 26007KT 9999 -RA OVC082/// 14/13 Q1016
  • 281720Z AUTO 26008KT 9999 -RA FEW031/// FEW042/// OVC060/// 14/13 Q1016

TAF TAF EKRN
Valid from the 28 at 21:00 until the 29 at 06:00 UTC


282027Z 2821/2906 25008KT 9999 SCT020 BKN080
TEMPO 2821/2823 4000 RADZ BKN012 SCT020CB



MET'MAP, your aeronautical weather chart ! - Copyright ORBIFLY December 2007 - Disclaimer

ORBIFLY MET'MAP TEAM :

Programming & Development : Alexandra Zaïnal
Original concept : Baudouin d'Aumeries
Technical & hardware support : Manuel Goepfert
Assistance : Marc-Olivier Méhu




SOURCES & CREDITS :

   NOAA